Time;durP1;ratioP1;P1;durP2;ratioP2;P2;SDS_P1;SDS_P2;PMS_P1;PMS_P2;Temp;Humidity;BMP_temperature;BMP_pressure;BME280_temperature;BME280_humidity;BME280_pressure;Samples;Min_cycle;Max_cycle;Signal;HPM_P1;HPM_P2
2021/04/19 00:01:54;;;;;;;9.20;5.73;;;14.00;86.90;;;;;;5119843;27;20571;-81
2021/04/19 00:04:20;;;;;;;8.20;6.05;;;14.00;87.70;;;;;;5114848;27;20174;-82
2021/04/19 00:06:46;;;;;;;4.93;4.43;;;14.00;88.10;;;;;;5132873;27;20178;-82
2021/04/19 00:09:12;;;;;;;9.40;5.77;;;14.00;88.20;;;;;;5114535;27;20600;-82
2021/04/19 00:11:38;;;;;;;7.70;6.37;;;13.90;88.40;;;;;;5132862;27;20257;-82
2021/04/19 00:14:04;;;;;;;8.70;5.80;;;13.90;89.00;;;;;;5095471;27;20185;-82
2021/04/19 00:16:30;;;;;;;7.60;5.22;;;13.80;89.40;;;;;;5084353;28;20206;-81
2021/04/19 00:18:56;;;;;;;6.23;5.63;;;13.80;89.80;;;;;;5074087;28;20238;-81
2021/04/19 00:21:21;;;;;;;8.77;6.20;;;13.80;90.10;;;;;;5073893;28;20603;-81
2021/04/19 00:23:52;;;;;;;6.65;5.57;;;13.70;90.40;;;;;;5091926;28;20578;-81
2021/04/19 00:26:18;;;;;;;10.23;5.60;;;13.70;90.60;;;;;;5091540;28;20176;-82
2021/04/19 00:28:44;;;;;;;6.67;6.07;;;13.60;91.20;;;;;;5091873;28;20712;-81
2021/04/19 00:31:16;;;;;;;5.47;4.97;;;13.60;91.00;;;;;;5092047;28;20164;-82
2021/04/19 00:33:42;;;;;;;6.22;4.70;;;13.60;91.30;;;;;;5073918;28;20185;-82
2021/04/19 00:36:10;;;;;;;6.30;5.70;;;13.50;91.50;;;;;;5078889;28;20172;-82
2021/04/19 00:38:35;;;;;;;6.70;6.00;;;13.50;91.80;;;;;;5093865;28;20195;-82
2021/04/19 00:41:03;;;;;;;7.37;6.67;;;13.50;92.10;;;;;;5091960;28;20200;-82
2021/04/19 00:43:37;;;;;;;7.30;6.70;;;13.40;92.30;;;;;;5058454;28;20963;-82
2021/04/19 00:46:06;;;;;;;8.15;6.22;;;13.40;92.30;;;;;;5061111;28;20635;-83
2021/04/19 00:48:34;;;;;;;7.88;5.95;;;13.30;92.60;;;;;;5077225;28;20171;-82
2021/04/19 00:51:04;;;;;;;7.13;5.80;;;13.30;92.80;;;;;;5078179;28;20195;-83
2021/04/19 00:53:30;;;;;;;7.25;6.50;;;13.20;93.00;;;;;;5095673;28;20185;-83
2021/04/19 00:55:56;;;;;;;7.25;6.65;;;13.20;93.10;;;;;;5077542;28;20160;-83
2021/04/19 00:58:29;;;;;;;7.65;5.88;;;13.10;93.30;;;;;;5095142;28;20222;-80
2021/04/19 01:00:55;;;;;;;7.18;6.45;;;13.00;93.60;;;;;;5077957;28;20542;-81
2021/04/19 01:03:22;;;;;;;7.40;6.05;;;13.00;93.90;;;;;;5095587;28;20693;-81
2021/04/19 01:05:51;;;;;;;6.60;6.00;;;12.90;94.10;;;;;;5095354;28;20179;-82
2021/04/19 01:08:28;;;;;;;10.93;6.13;;;12.90;94.30;;;;;;5085471;28;20189;-81
2021/04/19 01:10:56;;;;;;;8.27;5.60;;;12.90;94.60;;;;;;5095518;28;20176;-81
2021/04/19 01:13:25;;;;;;;5.78;5.25;;;12.80;94.80;;;;;;5077327;28;20570;-81
2021/04/19 01:15:55;;;;;;;6.88;5.72;;;12.80;95.10;;;;;;5098947;28;20176;-82
2021/04/19 01:18:22;;;;;;;11.32;6.28;;;12.70;95.30;;;;;;5076695;28;20560;-83
2021/04/19 01:20:52;;;;;;;7.00;5.63;;;12.70;95.60;;;;;;5095139;28;20170;-82
2021/04/19 01:23:19;;;;;;;7.03;5.70;;;12.70;95.80;;;;;;5076705;28;20170;-82
2021/04/19 01:25:48;;;;;;;6.97;5.95;;;12.60;96.00;;;;;;5060226;28;20266;-82
2021/04/19 01:28:17;;;;;;;8.93;6.60;;;12.60;96.10;;;;;;5094684;28;20167;-83
2021/04/19 01:30:48;;;;;;;8.68;6.00;;;12.60;96.50;;;;;;5095079;28;20195;-82
2021/04/19 01:33:15;;;;;;;6.10;5.50;;;12.60;96.70;;;;;;5076929;28;20171;-82
2021/04/19 01:35:47;;;;;;;5.78;5.22;;;12.60;96.90;;;;;;5076687;28;20175;-82
2021/04/19 01:38:24;;;;;;;6.00;5.40;;;12.60;97.20;;;;;;5092664;28;20210;-82
2021/04/19 01:40:54;;;;;;;8.27;6.00;;;12.50;97.30;;;;;;5096829;28;20174;-82
2021/04/19 01:43:20;;;;;;;7.60;6.10;;;12.50;97.40;;;;;;5096913;28;20178;-82
2021/04/19 01:45:54;;;;;;;7.03;5.63;;;12.50;97.40;;;;;;5080199;28;20177;-81
2021/04/19 01:48:22;;;;;;;8.82;5.68;;;12.50;97.60;;;;;;5114824;28;20637;-83
2021/04/19 01:50:59;;;;;;;5.82;5.03;;;12.50;97.70;;;;;;5082582;28;20270;-81
2021/04/19 01:53:27;;;;;;;5.80;4.80;;;12.40;97.80;;;;;;5101680;28;20684;-82
2021/04/19 01:55:53;;;;;;;6.38;5.13;;;12.40;97.90;;;;;;5079680;28;20221;-82
2021/04/19 01:58:21;;;;;;;8.03;4.90;;;12.40;98.00;;;;;;5096156;28;20194;-81
2021/04/19 02:00:57;;;;;;;8.38;5.50;;;12.40;98.10;;;;;;5096426;28;20195;-81
2021/04/19 02:03:44;;;;;;;6.45;4.93;;;12.30;98.40;;;;;;5096490;28;20181;-81
2021/04/19 02:06:33;;;;;;;5.97;5.38;;;12.30;98.40;;;;;;5114748;28;20189;-80
2021/04/19 02:09:16;;;;;;;6.10;4.85;;;12.30;98.60;;;;;;5114473;28;20678;-81
2021/04/19 02:12:17;;;;;;;7.18;5.55;;;12.20;99.20;;;;;;5096628;28;20254;-81
2021/04/19 02:15:07;;;;;;;9.10;4.78;;;12.20;99.00;;;;;;5114498;28;20316;-81
2021/04/19 02:17:48;;;;;;;6.53;4.90;;;12.20;99.00;;;;;;5114008;28;20240;-82
2021/04/19 02:20:31;;;;;;;6.45;4.63;;;12.20;99.10;;;;;;5114580;28;20228;-82
2021/04/19 02:23:01;;;;;;;4.80;4.30;;;12.20;99.30;;;;;;5114300;28;20163;-81
2021/04/19 02:25:42;;;;;;;5.43;4.93;;;12.20;99.30;;;;;;5096161;28;20202;-82
2021/04/19 02:28:15;;;;;;;7.85;5.80;;;12.20;99.70;;;;;;5096364;28;20197;-83
2021/04/19 02:30:45;;;;;;;5.18;4.68;;;12.20;99.60;;;;;;5097931;28;20191;-82
2021/04/19 02:33:16;;;;;;;5.45;4.97;;;12.10;99.70;;;;;;5062519;28;20193;-82
2021/04/19 02:35:45;;;;;;;6.97;4.88;;;12.10;99.80;;;;;;5114800;28;20174;-81
2021/04/19 02:38:16;;;;;;;7.78;5.30;;;12.10;99.90;;;;;;5115388;28;20554;-81
2021/04/19 02:40:48;;;;;;;6.00;4.57;;;12.00;99.90;;;;;;5099003;28;20190;-81
2021/04/19 02:43:16;;;;;;;6.25;5.65;;;12.00;99.90;;;;;;5099266;28;20625;-82
2021/04/19 02:45:43;;;;;;;6.50;5.90;;;12.00;99.90;;;;;;5100964;28;20208;-80
2021/04/19 02:48:18;;;;;;;6.00;5.40;;;12.00;99.90;;;;;;5079699;28;20184;-81
2021/04/19 02:51:03;;;;;;;5.65;4.93;;;12.00;99.90;;;;;;5114455;28;20162;-82
2021/04/19 02:53:29;;;;;;;7.30;5.97;;;12.00;99.90;;;;;;5114035;28;20186;-82
2021/04/19 02:55:56;;;;;;;9.05;5.57;;;12.00;99.90;;;;;;5062096;28;20178;-81
2021/04/19 02:58:38;;;;;;;7.25;5.43;;;12.00;99.90;;;;;;5113718;28;20198;-81
2021/04/19 03:01:18;;;;;;;5.75;4.97;;;12.00;99.90;;;;;;5114347;28;20257;-83
2021/04/19 03:03:52;;;;;;;6.15;5.10;;;12.00;99.90;;;;;;5080708;28;20198;-81
2021/04/19 03:06:20;;;;;;;6.20;4.97;;;12.00;99.90;;;;;;5102704;28;20171;-80
2021/04/19 03:08:53;;;;;;;7.15;5.55;;;12.00;99.90;;;;;;5097067;28;20281;-81
2021/04/19 03:11:34;;;;;;;10.65;5.50;;;12.00;99.90;;;;;;5096042;28;20527;-82
2021/04/19 03:14:07;;;;;;;4.95;4.47;;;12.00;99.90;;;;;;5095480;28;20606;-83
2021/04/19 03:16:49;;;;;;;6.35;5.20;;;12.00;99.90;;;;;;5097138;28;20171;-82
2021/04/19 03:19:21;;;;;;;6.50;4.75;;;12.00;99.90;;;;;;5096303;28;20191;-84
2021/04/19 03:21:49;;;;;;;6.18;5.10;;;12.00;99.90;;;;;;5115720;28;20164;-82
2021/04/19 03:24:18;;;;;;;5.40;4.80;;;12.00;99.90;;;;;;5098358;28;20194;-82
2021/04/19 03:27:12;;;;;;;6.68;4.40;;;12.00;99.90;;;;;;5095878;28;20569;-83
2021/04/19 03:29:44;;;;;;;6.72;5.10;;;12.00;99.90;;;;;;5094996;28;20606;-81
2021/04/19 03:32:24;;;;;;;7.35;5.00;;;12.00;99.90;;;;;;5095034;28;20167;-82
2021/04/19 03:34:55;;;;;;;7.47;5.35;;;11.90;99.90;;;;;;5077938;28;20210;-82
2021/04/19 03:37:30;;;;;;;8.50;5.20;;;11.90;99.90;;;;;;5078047;28;20546;-82
2021/04/19 03:40:30;;;;;;;4.60;3.90;;;11.90;99.90;;;;;;5095091;28;20562;-82
2021/04/19 03:43:01;;;;;;;9.05;5.20;;;11.90;99.90;;;;;;5082226;28;20167;-82
2021/04/19 03:45:33;;;;;;;5.72;4.90;;;11.90;99.90;;;;;;5113217;28;20206;-82
2021/04/19 03:48:32;;;;;;;7.88;5.65;;;11.90;99.90;;;;;;5112352;28;20174;-82
2021/04/19 03:51:08;;;;;;;5.75;4.75;;;11.90;99.90;;;;;;5095938;28;20197;-81
2021/04/19 03:53:42;;;;;;;11.68;4.70;;;11.90;99.90;;;;;;5096257;28;20638;-81
2021/04/19 03:56:10;;;;;;;8.40;5.13;;;11.90;99.90;;;;;;5097204;28;20194;-80
2021/04/19 03:58:49;;;;;;;5.53;4.93;;;11.90;99.90;;;;;;5098438;28;20202;-81
2021/04/19 04:01:18;;;;;;;8.85;5.15;;;11.90;99.90;;;;;;5060545;23;20270;-81
2021/04/19 04:03:47;;;;;;;6.00;4.70;;;11.90;99.90;;;;;;5043180;28;20268;-80
2021/04/19 04:06:21;;;;;;;8.93;5.15;;;11.80;99.90;;;;;;5051428;28;20180;-80
2021/04/19 04:08:47;;;;;;;9.55;4.38;;;11.80;99.90;;;;;;5050304;28;20181;-80
2021/04/19 04:11:16;;;;;;;6.88;4.85;;;11.80;99.90;;;;;;5033708;28;20208;-80
2021/04/19 04:13:44;;;;;;;5.20;4.63;;;11.80;99.90;;;;;;5033658;28;20173;-80
2021/04/19 04:16:11;;;;;;;7.40;5.22;;;11.70;99.90;;;;;;5017151;28;20704;-77
2021/04/19 04:18:48;;;;;;;6.15;4.35;;;11.70;99.90;;;;;;5018619;28;20218;-78
2021/04/19 04:21:14;;;;;;;6.60;4.47;;;11.60;99.90;;;;;;5019847;28;20197;-79
2021/04/19 04:23:45;;;;;;;9.63;5.68;;;11.60;99.90;;;;;;5029944;28;20177;-79
2021/04/19 04:26:12;;;;;;;5.78;5.20;;;11.60;99.90;;;;;;5018575;28;20186;-78
2021/04/19 04:28:39;;;;;;;7.28;5.70;;;11.50;99.90;;;;;;5024708;28;20177;-78
2021/04/19 04:31:09;;;;;;;6.55;4.45;;;11.40;99.90;;;;;;5002954;28;20200;-77
2021/04/19 04:33:44;;;;;;;6.25;5.18;;;11.40;99.90;;;;;;5022849;28;21493;-77
2021/04/19 04:36:17;;;;;;;5.50;4.60;;;11.30;99.90;;;;;;5030128;28;20173;-78
2021/04/19 04:38:46;;;;;;;6.38;5.78;;;11.20;99.90;;;;;;5019372;28;20200;-78
2021/04/19 04:41:18;;;;;;;6.18;5.30;;;11.20;99.90;;;;;;5025317;28;20202;-77
2021/04/19 04:43:46;;;;;;;5.77;4.87;;;11.10;99.90;;;;;;5033405;28;20173;-79
2021/04/19 04:46:29;;;;;;;7.63;6.82;;;11.00;99.90;;;;;;5050103;28;20165;-77
2021/04/19 04:49:09;;;;;;;8.80;6.43;;;11.00;99.90;;;;;;5051101;28;20899;-77
2021/04/19 04:51:36;;;;;;;10.63;6.32;;;11.00;99.90;;;;;;5051246;28;20557;-77
2021/04/19 04:54:08;;;;;;;9.10;6.05;;;10.90;99.90;;;;;;5033316;28;20173;-77
2021/04/19 04:56:36;;;;;;;6.65;5.90;;;10.90;99.90;;;;;;5050831;28;20166;-77
2021/04/19 04:59:04;;;;;;;8.80;6.20;;;10.90;99.90;;;;;;5050942;28;20204;-77
2021/04/19 05:01:32;;;;;;;6.53;5.82;;;10.90;99.90;;;;;;5016602;28;20205;-78
2021/04/19 05:03:59;;;;;;;12.05;7.40;;;10.90;99.90;;;;;;5051078;28;20173;-77
2021/04/19 05:06:26;;;;;;;8.05;7.28;;;10.90;99.90;;;;;;5050524;28;20165;-78
2021/04/19 05:08:53;;;;;;;7.82;7.03;;;10.90;99.90;;;;;;5051145;28;20169;-78
2021/04/19 05:11:18;;;;;;;7.90;6.85;;;10.90;99.90;;;;;;5033333;28;20224;-79
2021/04/19 05:13:45;;;;;;;8.83;7.50;;;10.90;99.90;;;;;;5055507;28;20242;-78
2021/04/19 05:16:11;;;;;;;10.18;7.55;;;10.90;99.90;;;;;;5050849;28;20637;-78
2021/04/19 05:18:36;;;;;;;8.93;8.10;;;10.90;99.90;;;;;;5050543;28;20244;-78
2021/04/19 05:21:02;;;;;;;12.97;8.60;;;11.00;99.90;;;;;;5033124;28;20622;-78
2021/04/19 05:23:28;;;;;;;9.25;8.25;;;11.00;99.90;;;;;;5050949;28;20207;-78
2021/04/19 05:25:55;;;;;;;10.50;8.37;;;11.00;99.90;;;;;;5050835;28;20169;-78
2021/04/19 05:28:21;;;;;;;11.68;8.10;;;11.00;99.90;;;;;;5050528;28;20847;-78
2021/04/19 05:30:50;;;;;;;10.40;8.90;;;11.00;99.90;;;;;;5034580;28;20195;-78
2021/04/19 05:33:17;;;;;;;12.00;8.98;;;11.00;99.90;;;;;;5036716;28;20184;-78
2021/04/19 05:35:43;;;;;;;9.48;8.57;;;11.00;99.90;;;;;;5053183;28;20170;-78
2021/04/19 05:38:09;;;;;;;12.00;8.52;;;11.00;99.90;;;;;;5054075;28;20718;-78
2021/04/19 05:40:36;;;;;;;10.85;9.65;;;10.90;99.90;;;;;;5036471;28;20196;-78
2021/04/19 05:43:04;;;;;;;11.73;9.80;;;10.90;99.90;;;;;;5036508;28;20177;-78
2021/04/19 05:45:31;;;;;;;12.00;9.32;;;10.90;99.90;;;;;;5054289;28;20189;-78
2021/04/19 05:47:59;;;;;;;11.75;10.20;;;10.90;99.90;;;;;;5053859;28;20215;-78
2021/04/19 05:50:26;;;;;;;12.50;9.63;;;10.90;99.90;;;;;;5058425;28;20189;-77
2021/04/19 05:52:54;;;;;;;13.35;10.48;;;10.90;99.90;;;;;;5036154;28;20177;-77
2021/04/19 05:55:25;;;;;;;14.30;9.80;;;10.80;99.90;;;;;;5036164;28;20177;-77
2021/04/19 05:58:13;;;;;;;13.68;10.75;;;10.80;99.90;;;;;;5039922;28;20196;-77
2021/04/19 06:00:52;;;;;;;10.75;9.50;;;10.80;99.90;;;;;;5055514;28;20674;-76
2021/04/19 06:03:29;;;;;;;13.98;10.13;;;10.80;99.90;;;;;;5055906;28;20172;-77
2021/04/19 06:06:12;;;;;;;10.65;9.55;;;10.70;99.90;;;;;;5073650;28;20164;-77
2021/04/19 06:08:50;;;;;;;12.00;9.52;;;10.70;99.90;;;;;;5055419;28;20259;-76
2021/04/19 06:11:26;;;;;;;11.50;10.30;;;10.70;99.90;;;;;;5055561;28;20679;-77
2021/04/19 06:14:01;;;;;;;12.25;9.60;;;10.70;99.90;;;;;;5073874;28;20169;-78
2021/04/19 06:16:28;;;;;;;11.70;10.45;;;10.70;99.90;;;;;;5072635;28;20509;-78
2021/04/19 06:18:55;;;;;;;10.82;9.70;;;10.70;99.90;;;;;;5038732;28;20254;-77
2021/04/19 06:21:22;;;;;;;14.57;11.38;;;10.70;99.90;;;;;;5073261;28;20199;-78
2021/04/19 06:23:48;;;;;;;12.20;10.90;;;10.60;99.90;;;;;;5055329;28;20211;-78
2021/04/19 06:26:14;;;;;;;11.90;9.17;;;10.70;99.90;;;;;;5055497;28;20172;-78
2021/04/19 06:28:40;;;;;;;17.37;11.60;;;10.70;99.90;;;;;;5060547;28;20577;-78
2021/04/19 06:31:08;;;;;;;12.47;9.93;;;10.60;99.90;;;;;;5072982;28;20595;-78
2021/04/19 06:33:34;;;;;;;12.93;10.55;;;10.70;99.90;;;;;;5072911;28;20669;-78
2021/04/19 06:35:59;;;;;;;12.20;11.00;;;10.60;99.90;;;;;;5072754;28;20302;-78
2021/04/19 06:38:25;;;;;;;16.60;10.57;;;10.60;99.90;;;;;;5054506;28;20691;-77
2021/04/19 06:40:51;;;;;;;14.73;11.47;;;10.60;99.90;;;;;;5054766;28;20719;-77
2021/04/19 06:43:18;;;;;;;13.23;11.83;;;10.60;99.90;;;;;;5055025;28;20161;-77
2021/04/19 06:45:44;;;;;;;14.73;12.23;;;10.60;99.90;;;;;;5072804;28;20171;-78
2021/04/19 06:48:11;;;;;;;15.52;12.68;;;10.60;99.90;;;;;;5072424;28;20738;-77
2021/04/19 06:50:39;;;;;;;15.15;13.60;;;10.60;99.90;;;;;;5038033;28;20195;-77
2021/04/19 06:53:05;;;;;;;16.65;13.05;;;10.60;99.90;;;;;;5072644;28;20172;-77
2021/04/19 06:55:33;;;;;;;18.27;14.15;;;10.60;99.90;;;;;;5032956;28;20230;-77
2021/04/19 06:58:00;;;;;;;19.17;14.68;;;10.60;99.90;;;;;;5023151;28;20192;-77
2021/04/19 07:00:28;;;;;;;16.15;12.85;;;10.60;99.90;;;;;;5045612;28;20232;-78
2021/04/19 07:02:56;;;;;;;16.23;12.48;;;10.50;99.90;;;;;;5052372;28;20227;-77
2021/04/19 07:05:27;;;;;;;15.32;13.60;;;10.50;99.90;;;;;;5025242;28;20169;-77
2021/04/19 07:08:05;;;;;;;15.80;14.20;;;10.50;99.90;;;;;;5032103;28;20177;-77
2021/04/19 07:10:34;;;;;;;15.98;14.35;;;10.50;99.90;;;;;;5032357;28;20611;-77
2021/04/19 07:13:07;;;;;;;17.75;15.25;;;10.60;99.90;;;;;;5038409;28;20256;-77
2021/04/19 07:15:39;;;;;;;16.17;14.48;;;10.60;99.90;;;;;;5052163;28;20173;-77
2021/04/19 07:18:06;;;;;;;14.98;13.45;;;10.60;99.90;;;;;;5017423;28;20223;-77
2021/04/19 07:20:33;;;;;;;17.00;14.20;;;10.70;99.90;;;;;;5034212;28;20189;-77
2021/04/19 07:23:00;;;;;;;16.95;14.27;;;10.80;99.90;;;;;;5034220;28;20521;-77
2021/04/19 07:25:27;;;;;;;17.08;15.35;;;10.80;99.90;;;;;;5052115;28;20165;-77
2021/04/19 07:27:54;;;;;;;16.17;14.10;;;10.90;99.90;;;;;;5033496;28;20231;-77
2021/04/19 07:30:20;;;;;;;24.40;17.27;;;10.90;99.90;;;;;;5025489;28;20193;-77
2021/04/19 07:32:46;;;;;;;19.60;15.25;;;10.90;99.90;;;;;;5031441;28;20545;-77
2021/04/19 07:35:12;;;;;;;20.10;14.83;;;11.00;99.90;;;;;;5032075;28;20176;-77
2021/04/19 07:37:38;;;;;;;23.30;15.93;;;11.00;99.90;;;;;;5031352;28;20195;-77
2021/04/19 07:40:06;;;;;;;19.42;15.52;;;11.10;99.90;;;;;;5014249;28;20260;-78
2021/04/19 07:42:37;;;;;;;15.65;14.05;;;11.10;99.90;;;;;;5014954;28;20229;-77
2021/04/19 07:45:04;;;;;;;16.25;13.88;;;11.20;99.90;;;;;;5014222;28;20177;-77
2021/04/19 07:47:33;;;;;;;17.58;15.50;;;11.20;99.90;;;;;;5031169;28;20174;-77
2021/04/19 07:50:00;;;;;;;19.20;17.23;;;11.20;99.90;;;;;;5013891;28;20248;-77
2021/04/19 07:52:28;;;;;;;16.75;15.10;;;11.20;99.90;;;;;;5013833;28;20587;-77
2021/04/19 07:55:15;;;;;;;16.65;14.43;;;11.20;99.90;;;;;;5013387;28;20227;-78
2021/04/19 07:57:41;;;;;;;16.98;15.25;;;11.20;99.90;;;;;;5013184;28;20224;-77
2021/04/19 08:00:09;;;;;;;19.33;15.80;;;11.20;99.90;;;;;;5030992;28;20201;-78
2021/04/19 08:02:41;;;;;;;17.25;13.90;;;11.20;99.90;;;;;;5033423;28;20558;-76
2021/04/19 08:05:07;;;;;;;17.80;15.07;;;11.20;99.90;;;;;;5048052;28;20732;-77
2021/04/19 08:07:33;;;;;;;17.60;15.70;;;11.20;99.90;;;;;;5020154;28;20301;-78
2021/04/19 08:10:07;;;;;;;20.10;15.30;;;11.20;99.90;;;;;;5038464;28;20258;-77
2021/04/19 08:12:45;;;;;;;17.75;14.13;;;11.20;99.90;;;;;;5051758;28;20250;-77
2021/04/19 08:15:14;;;;;;;17.55;15.07;;;11.20;99.90;;;;;;5034039;28;20230;-77
2021/04/19 08:17:40;;;;;;;16.70;15.07;;;11.20;99.90;;;;;;5033388;28;20224;-77
2021/04/19 08:20:08;;;;;;;17.77;15.93;;;11.20;99.90;;;;;;5029784;28;20197;-77
2021/04/19 08:22:34;;;;;;;20.02;16.08;;;11.20;99.90;;;;;;5047331;28;20587;-77
2021/04/19 08:25:21;;;;;;;15.65;14.05;;;11.20;99.90;;;;;;5006602;28;20184;-77
2021/04/19 08:28:15;;;;;;;15.07;13.73;;;11.10;99.90;;;;;;5030899;28;20197;-78
2021/04/19 08:30:44;;;;;;;20.30;16.92;;;11.10;99.90;;;;;;5030979;28;20766;-77
2021/04/19 08:33:10;;;;;;;19.95;17.60;;;11.20;99.90;;;;;;5031036;28;20161;-78
2021/04/19 08:35:37;;;;;;;19.70;16.85;;;11.20;99.90;;;;;;5035961;28;20188;-77
2021/04/19 08:38:04;;;;;;;19.00;17.00;;;11.20;99.90;;;;;;5000774;28;20724;-77
2021/04/19 08:40:32;;;;;;;19.33;16.35;;;11.20;99.90;;;;;;5030313;28;20704;-77
2021/04/19 08:42:58;;;;;;;17.70;15.90;;;11.30;99.90;;;;;;5046133;28;20169;-78
2021/04/19 08:45:25;;;;;;;17.95;15.82;;;11.30;99.90;;;;;;5030648;28;20296;-77
2021/04/19 08:47:52;;;;;;;17.60;15.13;;;11.40;99.90;;;;;;5052583;28;20551;-77
2021/04/19 08:50:23;;;;;;;16.85;15.05;;;11.40;99.90;;;;;;5036510;28;20215;-77
2021/04/19 08:52:54;;;;;;;17.38;15.43;;;11.40;99.90;;;;;;5040823;28;20679;-79
2021/04/19 08:55:21;;;;;;;18.65;16.80;;;11.50;99.90;;;;;;5067011;28;20176;-77
2021/04/19 08:57:48;;;;;;;15.75;14.18;;;11.50;99.90;;;;;;5049576;28;20197;-77
2021/04/19 09:00:19;;;;;;;18.35;16.42;;;11.50;99.90;;;;;;5049999;28;20200;-78
2021/04/19 09:02:45;;;;;;;17.23;15.65;;;11.60;99.90;;;;;;5016172;28;20170;-78
2021/04/19 09:05:14;;;;;;;15.90;14.30;;;11.70;99.90;;;;;;5033297;28;20180;-77
2021/04/19 09:07:42;;;;;;;16.25;14.38;;;11.80;99.90;;;;;;5036218;28;20645;-77
2021/04/19 09:10:11;;;;;;;17.55;14.45;;;11.90;99.90;;;;;;5038176;28;20605;-77
2021/04/19 09:12:36;;;;;;;16.83;14.93;;;12.00;99.90;;;;;;5016487;28;20569;-77
2021/04/19 09:15:26;;;;;;;19.87;16.00;;;12.00;99.90;;;;;;5034097;28;20162;-77
2021/04/19 09:18:09;;;;;;;17.80;14.68;;;12.10;99.90;;;;;;5033595;28;20189;-79
2021/04/19 09:20:56;;;;;;;17.10;15.15;;;12.20;99.90;;;;;;5039184;28;20205;-78
2021/04/19 09:23:33;;;;;;;16.70;14.95;;;12.30;99.90;;;;;;5018802;28;20170;-78
2021/04/19 09:26:01;;;;;;;16.83;15.07;;;12.50;99.90;;;;;;5037821;28;20528;-79
2021/04/19 09:28:46;;;;;;;17.23;15.15;;;12.60;99.90;;;;;;5015958;28;20237;-77
2021/04/19 09:31:13;;;;;;;16.48;14.82;;;12.70;99.90;;;;;;5044536;28;20196;-78
2021/04/19 09:33:39;;;;;;;17.20;15.30;;;12.80;99.90;;;;;;5058206;28;20743;-77
2021/04/19 09:36:05;;;;;;;15.80;14.20;;;12.90;99.90;;;;;;5053430;28;20192;-78
2021/04/19 09:38:31;;;;;;;15.63;12.65;;;13.00;99.90;;;;;;5053121;28;20216;-77
2021/04/19 09:41:11;;;;;;;15.90;14.20;;;13.10;99.90;;;;;;5052666;28;20791;-78
2021/04/19 09:43:46;;;;;;;17.02;15.20;;;13.10;99.90;;;;;;5053488;28;20256;-77
2021/04/19 09:46:19;;;;;;;16.48;14.75;;;13.10;99.90;;;;;;5051501;28;20176;-78
2021/04/19 09:49:10;;;;;;;17.10;15.38;;;13.20;99.90;;;;;;5049866;28;20208;-78
2021/04/19 09:51:39;;;;;;;19.83;17.90;;;13.20;99.90;;;;;;5039329;28;20246;-77
2021/04/19 09:54:12;;;;;;;18.90;17.10;;;13.30;99.90;;;;;;5018586;28;20252;-77
2021/04/19 09:56:48;;;;;;;18.17;15.85;;;13.30;99.90;;;;;;5027031;28;20328;-78
2021/04/19 09:59:22;;;;;;;19.33;16.48;;;13.40;99.90;;;;;;5048263;28;20767;-77
2021/04/19 10:01:50;;;;;;;20.00;17.98;;;13.50;99.90;;;;;;5054298;28;20513;-77
2021/04/19 10:04:17;;;;;;;20.98;18.52;;;13.60;99.90;;;;;;5049163;28;20564;-78
2021/04/19 10:06:55;;;;;;;18.15;15.95;;;13.70;99.90;;;;;;5026360;28;20195;-77
2021/04/19 10:09:24;;;;;;;18.17;15.23;;;13.70;99.90;;;;;;5030996;28;20208;-78
2021/04/19 10:11:55;;;;;;;18.80;16.40;;;13.70;99.90;;;;;;5044083;28;20881;-78
2021/04/19 10:14:21;;;;;;;20.75;18.67;;;13.80;99.90;;;;;;5026772;28;20176;-77
2021/04/19 10:16:49;;;;;;;19.95;17.95;;;13.80;99.90;;;;;;5025774;28;20173;-78
2021/04/19 10:19:27;;;;;;;21.80;18.63;;;13.90;99.90;;;;;;5035095;28;20199;-78
2021/04/19 10:22:05;;;;;;;19.45;17.45;;;13.90;99.90;;;;;;5034638;28;20566;-78
2021/04/19 10:24:33;;;;;;;15.02;13.50;;;14.00;99.90;;;;;;5034592;28;20161;-77
2021/04/19 10:26:59;;;;;;;18.80;17.00;;;14.10;99.90;;;;;;5051981;28;20187;-78
2021/04/19 10:29:28;;;;;;;19.05;15.55;;;14.20;99.90;;;;;;5034786;28;20671;-78
2021/04/19 10:31:59;;;;;;;17.33;15.05;;;14.30;99.90;;;;;;5034470;28;20188;-79
2021/04/19 10:34:27;;;;;;;18.33;16.70;;;14.50;99.90;;;;;;5026008;28;20246;-78
2021/04/19 10:36:59;;;;;;;16.85;15.25;;;14.70;99.90;;;;;;5052184;28;20169;-77
2021/04/19 10:39:28;;;;;;;18.17;16.37;;;15.00;99.90;;;;;;5022133;28;20560;-78
2021/04/19 10:41:57;;;;;;;17.30;15.70;;;15.60;99.90;;;;;;5031049;28;20592;-77
2021/04/19 10:44:43;;;;;;;17.60;15.90;;;16.30;99.90;;;;;;5030976;28;21173;-77
2021/04/19 10:47:11;;;;;;;18.97;17.00;;;16.90;99.90;;;;;;5055006;28;20594;-77
2021/04/19 10:49:38;;;;;;;18.10;16.30;;;17.50;99.90;;;;;;5052673;28;20678;-78
2021/04/19 10:52:07;;;;;;;19.93;18.03;;;17.90;99.90;;;;;;5052286;28;20910;-78
2021/04/19 10:54:39;;;;;;;18.90;17.07;;;18.20;99.90;;;;;;5051956;28;20570;-78
2021/04/19 10:57:07;;;;;;;20.03;18.23;;;18.40;99.90;;;;;;5033959;28;20571;-78
2021/04/19 10:59:33;;;;;;;20.00;18.07;;;18.60;99.90;;;;;;5051848;28;20674;-78
2021/04/19 11:02:05;;;;;;;20.87;19.00;;;18.70;99.90;;;;;;5034321;28;20904;-78
2021/04/19 11:04:33;;;;;;;19.60;17.80;;;18.80;99.90;;;;;;5028268;28;20639;-78
2021/04/19 11:07:37;;;;;;;19.30;17.50;;;18.90;99.90;;;;;;5013941;28;20599;-79
2021/04/19 11:10:17;;;;;;;20.10;16.90;;;18.80;99.90;;;;;;5036702;28;20634;-79
2021/04/19 11:12:53;;;;;;;18.33;16.43;;;18.90;99.90;;;;;;5051904;28;20563;-79
2021/04/19 11:15:21;;;;;;;18.13;16.43;;;18.80;99.90;;;;;;5017819;28;20571;-79
2021/04/19 11:17:47;;;;;;;17.73;16.13;;;18.80;99.90;;;;;;5051561;28;20964;-79
2021/04/19 11:20:24;;;;;;;19.63;17.70;;;18.80;99.90;;;;;;5052033;28;20638;-79
2021/04/19 11:22:50;;;;;;;17.47;15.90;;;18.90;99.90;;;;;;5051939;28;20896;-79
2021/04/19 11:25:24;;;;;;;18.40;16.67;;;19.20;99.90;;;;;;5057029;28;20578;-79
2021/04/19 11:27:52;;;;;;;18.03;16.23;;;19.60;99.90;;;;;;5050617;28;20568;-79
2021/04/19 11:30:24;;;;;;;16.03;14.53;;;20.10;99.90;;;;;;5051512;28;20591;-79
2021/04/19 11:33:04;;;;;;;16.50;15.00;;;20.40;99.90;;;;;;5051836;28;20579;-78
2021/04/19 11:35:45;;;;;;;16.17;14.80;;;20.60;99.90;;;;;;5051555;28;20590;-79
2021/04/19 11:38:18;;;;;;;16.53;15.10;;;20.80;99.90;;;;;;5050914;28;20652;-80
2021/04/19 11:40:46;;;;;;;14.20;13.00;;;21.00;99.90;;;;;;5051699;28;20626;-79
2021/04/19 11:43:24;;;;;;;14.60;13.30;;;21.20;99.90;;;;;;5033691;28;20944;-79
2021/04/19 11:46:04;;;;;;;14.80;13.50;;;21.40;99.90;;;;;;5017650;28;20591;-79
2021/04/19 11:48:32;;;;;;;13.27;12.13;;;21.70;99.90;;;;;;5040820;28;20672;-79
2021/04/19 11:50:58;;;;;;;13.70;12.43;;;22.20;99.90;;;;;;5041137;28;21089;-79
2021/04/19 11:53:29;;;;;;;15.20;13.90;;;22.40;99.90;;;;;;5048963;28;20607;-79
2021/04/19 11:55:58;;;;;;;14.47;13.27;;;22.70;99.90;;;;;;5050849;28;20629;-79
2021/04/19 11:58:24;;;;;;;12.40;11.30;;;22.90;99.90;;;;;;5050547;28;20654;-79
2021/04/19 12:00:52;;;;;;;14.90;13.57;;;23.00;99.90;;;;;;5050603;28;21040;-79
2021/04/19 12:03:25;;;;;;;12.80;11.80;;;23.20;99.90;;;;;;5016949;28;20655;-78
2021/04/19 12:05:52;;;;;;;11.20;10.30;;;23.30;99.90;;;;;;5045503;28;20604;-78
2021/04/19 12:08:18;;;;;;;10.23;9.33;;;23.50;99.90;;;;;;5016566;28;20675;-78
2021/04/19 12:10:44;;;;;;;7.40;6.83;;;23.60;99.90;;;;;;5033505;28;21031;-79
2021/04/19 12:13:14;;;;;;;7.77;7.17;;;23.80;99.90;;;;;;5016273;28;20563;-78
2021/04/19 12:15:44;;;;;;;7.40;6.67;;;23.60;99.90;;;;;;5050682;28;20584;-80
2021/04/19 12:18:11;;;;;;;8.30;7.50;;;23.40;99.90;;;;;;5032018;28;20630;-80
2021/04/19 12:20:38;;;;;;;9.00;8.30;;;23.20;99.90;;;;;;5050711;28;20599;-78
2021/04/19 12:23:05;;;;;;;9.83;9.13;;;22.90;99.40;;;;;;5033091;28;20622;-78
2021/04/19 12:25:31;;;;;;;11.07;10.07;;;22.70;99.10;;;;;;5051149;28;21172;-78
2021/04/19 12:27:58;;;;;;;10.27;9.30;;;22.60;98.70;;;;;;5015979;28;20600;-79
2021/04/19 12:30:28;;;;;;;13.33;11.30;;;22.40;98.40;;;;;;5032700;28;20965;-78
2021/04/19 12:32:54;;;;;;;10.47;9.47;;;22.30;98.50;;;;;;5016314;28;21383;-79
2021/04/19 12:35:20;;;;;;;9.87;8.87;;;22.20;98.60;;;;;;5050718;28;20598;-79
2021/04/19 12:37:47;;;;;;;11.90;10.80;;;22.10;98.40;;;;;;5043738;28;20712;-79
2021/04/19 12:40:14;;;;;;;12.20;11.00;;;22.00;98.00;;;;;;5027357;28;20616;-78
2021/04/19 12:42:41;;;;;;;13.30;12.10;;;21.90;98.10;;;;;;5046643;28;20583;-78
2021/04/19 12:45:07;;;;;;;14.73;13.43;;;21.80;97.70;;;;;;5054595;28;20575;-78
2021/04/19 12:47:33;;;;;;;15.33;13.73;;;21.70;97.50;;;;;;5037032;28;20678;-79
2021/04/19 12:49:59;;;;;;;13.50;12.30;;;21.50;97.10;;;;;;5016842;28;20611;-79
2021/04/19 12:52:26;;;;;;;10.63;9.17;;;21.40;97.10;;;;;;5000378;28;20588;-78
2021/04/19 12:55:11;;;;;;;11.17;10.20;;;21.40;97.30;;;;;;5046513;28;20606;-78